Time;durP1;ratioP1;P1;durP2;ratioP2;P2;SDS_P1;SDS_P2;PMS_P1;PMS_P2;Temp;Humidity;BMP_temperature;BMP_pressure;BME280_temperature;BME280_humidity;BME280_pressure;Samples;Min_cycle;Max_cycle;Signal;HPM_P1;HPM_P2
2021/01/20 00:44:30;;;;;;;11.68;4.78;;;3.50;99.90;;;;;;4872240;28;20090;-87
2021/01/20 00:46:54;;;;;;;13.88;5.47;;;3.50;99.90;;;;;;4869239;28;20092;-88
2021/01/20 00:49:57;;;;;;;13.40;5.35;;;3.50;99.90;;;;;;4873405;28;20080;-88
2021/01/20 00:52:27;;;;;;;11.32;5.07;;;3.60;99.90;;;;;;4872812;28;20091;-88
2021/01/20 00:54:57;;;;;;;13.30;6.13;;;3.60;99.90;;;;;;4876397;28;20611;-88
2021/01/20 00:57:21;;;;;;;13.60;5.80;;;3.60;99.90;;;;;;4872586;28;20438;-89
2021/01/20 00:59:46;;;;;;;17.65;6.25;;;3.70;99.90;;;;;;4874099;28;20092;-89
2021/01/20 01:02:15;;;;;;;15.23;6.63;;;3.70;99.90;;;;;;4874208;28;20126;-88
2021/01/20 01:04:39;;;;;;;16.70;6.57;;;3.70;99.90;;;;;;4872882;28;20175;-88
2021/01/20 01:07:04;;;;;;;18.98;7.43;;;3.70;99.90;;;;;;4871774;28;20091;-88
2021/01/20 01:09:30;;;;;;;16.60;6.22;;;3.70;99.90;;;;;;4873083;28;20091;-88
2021/01/20 01:11:56;;;;;;;18.02;6.90;;;;;;;;;;4869317;28;20605;-88
2021/01/20 01:14:31;;;;;;;16.42;6.63;;;3.70;99.90;;;;;;4873234;28;20100;-88
2021/01/20 02:06:36;;;;;;;;;;;5.10;99.90;;;;;;4870935;28;20129;-85
2021/01/20 02:09:01;;;;;;;18.20;7.60;;;5.20;99.90;;;;;;4868845;28;19971;-87
2021/01/20 02:11:51;;;;;;;29.60;9.70;;;5.20;99.90;;;;;;4874675;28;20091;-87
2021/01/20 02:14:29;;;;;;;30.70;8.07;;;5.40;99.90;;;;;;4867614;28;20094;-87
2021/01/20 02:17:25;;;;;;;18.58;7.72;;;5.50;99.90;;;;;;4870853;28;20134;-87
2021/01/20 02:20:24;;;;;;;21.42;8.27;;;5.60;99.90;;;;;;4865755;28;20102;-88
2021/01/20 02:22:59;;;;;;;22.77;8.63;;;5.70;99.90;;;;;;4847927;28;20094;-86
2021/01/20 02:26:01;;;;;;;25.30;9.13;;;5.70;99.90;;;;;;4873285;28;20519;-86
2021/01/20 02:28:42;;;;;;;22.58;8.52;;;5.80;99.90;;;;;;4870106;28;22943;-87
2021/01/20 07:17:52;;;;;;;24.05;10.63;;;4.60;99.90;;;;;;4872114;28;20114;-85
2021/01/20 07:43:27;;;;;;;22.77;9.43;;;4.50;99.90;;;;;;4864590;28;20104;-86
2021/01/20 07:46:00;;;;;;;22.67;9.30;;;4.50;99.90;;;;;;4864781;28;20134;-87
2021/01/20 07:48:33;;;;;;;22.55;9.07;;;4.50;99.90;;;;;;4871858;28;20250;-88
2021/01/20 07:51:00;;;;;;;28.27;9.82;;;4.50;99.90;;;;;;4867655;28;20092;-86
2021/01/20 07:53:25;;;;;;;29.65;10.00;;;4.50;99.90;;;;;;4865836;28;20420;-87
2021/01/20 07:55:55;;;;;;;24.37;8.90;;;4.50;99.90;;;;;;4869515;28;20087;-87
2021/01/20 07:58:30;;;;;;;21.08;8.70;;;4.50;99.90;;;;;;4860675;28;20498;-87
2021/01/20 08:00:59;;;;;;;23.25;9.52;;;4.50;99.90;;;;;;4860290;28;20095;-88
2021/01/20 08:03:34;;;;;;;18.50;8.05;;;4.50;99.90;;;;;;4867327;28;20142;-87
2021/01/20 08:06:10;;;;;;;30.08;9.40;;;4.50;99.90;;;;;;4863356;28;20150;-86
2021/01/20 08:08:49;;;;;;;19.23;8.00;;;4.50;99.90;;;;;;4870695;28;20588;-85
2021/01/20 08:11:22;;;;;;;16.95;7.93;;;4.60;99.90;;;;;;4872048;28;20443;-84
2021/01/20 08:13:50;;;;;;;18.85;8.15;;;5.70;99.90;;;;;;4871618;28;20084;-87
2021/01/20 08:16:33;;;;;;;15.02;7.93;;;4.60;99.90;;;;;;4861900;28;20159;-85
2021/01/20 08:18:59;;;;;;;15.20;8.20;;;4.70;99.90;;;;;;4870748;28;20547;-87
2021/01/20 08:21:34;;;;;;;19.58;9.10;;;4.70;99.90;;;;;;4871026;28;20439;-86
2021/01/20 08:24:05;;;;;;;20.95;7.22;;;4.70;99.90;;;;;;4864502;28;20105;-86
2021/01/20 08:26:34;;;;;;;19.73;8.15;;;4.80;99.90;;;;;;4864736;28;20178;-87
2021/01/20 08:29:21;;;;;;;16.52;7.63;;;4.70;99.90;;;;;;4873458;28;20083;-86
2021/01/20 08:32:10;;;;;;;20.55;7.22;;;4.70;99.90;;;;;;4871535;28;20088;-86
2021/01/20 08:34:37;;;;;;;20.80;7.40;;;4.70;99.90;;;;;;4866072;28;20088;-87
2021/01/20 08:37:02;;;;;;;15.55;6.80;;;4.80;99.90;;;;;;4875054;28;20502;-87
2021/01/20 08:39:31;;;;;;;18.73;7.38;;;4.70;99.90;;;;;;4871474;28;20092;-87
2021/01/20 08:42:22;;;;;;;19.65;7.70;;;4.70;99.90;;;;;;4853705;28;20088;-85
2021/01/20 08:45:11;;;;;;;13.82;6.80;;;4.70;99.90;;;;;;4866411;28;20149;-86
2021/01/20 08:47:47;;;;;;;13.40;6.80;;;4.80;99.90;;;;;;4870492;28;20447;-86
2021/01/20 08:50:11;;;;;;;13.52;7.40;;;4.70;99.90;;;;;;4867280;28;20087;-86
2021/01/20 08:52:52;;;;;;;14.80;6.43;;;4.70;99.90;;;;;;4866748;28;20428;-86
2021/01/20 08:55:29;;;;;;;21.27;6.32;;;4.70;99.90;;;;;;4873525;28;20205;-88
2021/01/20 08:58:18;;;;;;;17.42;6.90;;;4.70;99.90;;;;;;4873314;28;20087;-86
2021/01/20 14:03:21;;;;;;;3.80;1.80;;;6.80;99.90;;;;;;4858138;28;20155;-84
2021/01/20 14:05:53;;;;;;;5.60;1.70;;;6.80;99.90;;;;;;4863541;28;20100;-84
2021/01/20 14:08:18;;;;;;;3.85;1.52;;;6.80;99.90;;;;;;4847164;28;20096;-84
2021/01/20 14:10:44;;;;;;;2.78;1.40;;;6.10;99.90;;;;;;4854344;28;20134;-85
2021/01/20 14:13:17;;;;;;;3.33;1.55;;;6.70;99.90;;;;;;4868667;28;20084;-84
2021/01/20 14:15:43;;;;;;;5.00;1.80;;;6.70;99.90;;;;;;4864591;28;20157;-85
2021/01/20 14:18:42;;;;;;;2.63;1.60;;;6.60;99.90;;;;;;4870130;28;20506;-85
2021/01/20 14:21:09;;;;;;;3.70;1.85;;;6.60;99.90;;;;;;4870362;28;20091;-84
2021/01/20 14:23:33;;;;;;;7.25;2.60;;;6.70;99.90;;;;;;4858698;28;20175;-85
2021/01/20 14:26:18;;;;;;;4.55;1.85;;;6.70;99.90;;;;;;4859382;28;20087;-84
2021/01/20 14:28:45;;;;;;;2.00;1.08;;;6.50;99.90;;;;;;4864402;28;20145;-84
2021/01/20 14:31:20;;;;;;;4.25;1.92;;;6.60;99.90;;;;;;4870542;28;20087;-84
2021/01/20 14:33:46;;;;;;;2.60;1.63;;;6.50;99.90;;;;;;4862205;28;20098;-84
2021/01/20 14:36:14;;;;;;;8.40;1.52;;;6.50;99.90;;;;;;4858563;28;20103;-84
2021/01/20 14:38:41;;;;;;;1.75;1.30;;;6.50;99.90;;;;;;4861872;28;20134;-85
2021/01/20 14:41:07;;;;;;;3.65;1.70;;;6.50;99.90;;;;;;4859690;28;20487;-85
2021/01/20 14:43:33;;;;;;;4.18;1.60;;;6.50;99.90;;;;;;4857271;28;20096;-85
2021/01/20 14:46:00;;;;;;;3.58;1.80;;;6.60;99.90;;;;;;4860416;28;20096;-84
2021/01/20 14:48:33;;;;;;;3.05;1.60;;;6.50;99.90;;;;;;4866876;28;25208;-84
2021/01/20 14:51:51;;;;;;;4.05;1.60;;;6.60;99.90;;;;;;4869659;28;20583;-84
2021/01/20 14:58:44;;;;;;;5.13;1.85;;;6.60;99.90;;;;;;4867928;28;20099;-85
2021/01/20 15:01:56;;;;;;;3.63;1.90;;;6.60;99.90;;;;;;4856232;28;20088;-84
2021/01/20 15:04:21;;;;;;;2.97;1.40;;;6.50;99.90;;;;;;4868437;28;20792;-85
2021/01/20 15:07:28;;;;;;;3.20;1.73;;;6.40;99.90;;;;;;4856459;28;20092;-85
2021/01/20 15:09:59;;;;;;;4.03;1.48;;;6.40;99.90;;;;;;4867105;28;20088;-84
2021/01/20 15:12:41;;;;;;;2.97;1.75;;;6.40;99.90;;;;;;4872305;28;20084;-86
2021/01/20 15:15:42;;;;;;;3.65;1.83;;;6.40;99.90;;;;;;4869216;28;20099;-85
2021/01/20 15:18:31;;;;;;;2.70;1.05;;;6.40;99.90;;;;;;4863969;28;20083;-85
2021/01/20 15:21:08;;;;;;;2.75;1.50;;;6.30;99.90;;;;;;4854377;28;20537;-86
2021/01/20 15:24:25;;;;;;;4.57;1.85;;;6.30;99.90;;;;;;4874784;28;20182;-85
2021/01/20 15:27:04;;;;;;;3.10;1.60;;;6.20;99.90;;;;;;4869552;28;20142;-85
2021/01/20 15:29:34;;;;;;;3.17;1.50;;;6.20;99.90;;;;;;4868989;28;20490;-85
2021/01/20 15:32:01;;;;;;;4.97;1.65;;;6.10;99.90;;;;;;4864234;28;20119;-84
2021/01/20 15:34:30;;;;;;;2.45;1.40;;;6.20;99.90;;;;;;4869451;28;20145;-85
2021/01/20 15:36:54;;;;;;;7.82;2.22;;;6.10;99.90;;;;;;4863755;28;20087;-85
2021/01/20 15:39:21;;;;;;;4.65;1.48;;;6.10;99.90;;;;;;4871557;28;20095;-86
2021/01/20 15:41:45;;;;;;;2.97;1.48;;;6.00;99.90;;;;;;4849021;28;20115;-87
2021/01/20 15:44:13;;;;;;;4.07;1.42;;;6.00;99.90;;;;;;4862738;28;20766;-84
2021/01/20 15:46:38;;;;;;;6.07;1.33;;;6.00;99.90;;;;;;4867200;28;20446;-86
2021/01/20 15:49:03;;;;;;;2.95;1.30;;;6.00;99.90;;;;;;4859253;28;20114;-86
2021/01/20 15:51:30;;;;;;;3.80;1.70;;;6.00;99.90;;;;;;4874334;28;20126;-86
2021/01/20 15:53:55;;;;;;;3.28;1.08;;;6.00;99.90;;;;;;4870562;28;20167;-87
2021/01/20 15:56:24;;;;;;;7.97;1.67;;;6.10;99.90;;;;;;4867916;28;20088;-84
2021/01/20 15:58:50;;;;;;;2.83;1.45;;;6.00;99.90;;;;;;4867423;28;20084;-85
2021/01/20 16:01:25;;;;;;;2.72;1.20;;;6.00;99.90;;;;;;4865058;28;20102;-87
2021/01/20 16:03:50;;;;;;;4.30;1.50;;;5.90;99.90;;;;;;4859616;28;20109;-88
2021/01/20 16:06:18;;;;;;;4.38;1.33;;;5.90;99.90;;;;;;4863904;28;20107;-85
2021/01/20 16:08:43;;;;;;;4.53;1.58;;;6.00;99.90;;;;;;4865834;28;20095;-85
2021/01/20 16:11:14;;;;;;;7.97;1.63;;;5.90;99.90;;;;;;4867874;28;20095;-85
2021/01/20 16:13:40;;;;;;;3.38;1.40;;;6.00;99.90;;;;;;4860347;28;20087;-85
2021/01/20 16:16:12;;;;;;;3.97;1.50;;;6.00;99.90;;;;;;4858600;28;20103;-85
2021/01/20 16:18:42;;;;;;;3.58;1.30;;;6.00;99.90;;;;;;4859409;28;20102;-85
2021/01/20 16:21:06;;;;;;;3.72;1.20;;;6.20;99.90;;;;;;4873397;28;20095;-84
2021/01/20 16:23:30;;;;;;;3.10;1.30;;;6.20;99.90;;;;;;4872047;28;20102;-84
2021/01/20 16:26:07;;;;;;;4.32;1.30;;;6.30;99.90;;;;;;4862681;28;20087;-84
2021/01/20 16:28:32;;;;;;;6.25;3.17;;;;;;;;;;4855150;28;20174;-85
2021/01/20 16:31:01;;;;;;;8.43;1.60;;;6.30;99.90;;;;;;4840839;28;20097;-85
2021/01/20 16:33:25;;;;;;;3.40;1.42;;;6.30;99.90;;;;;;4869898;28;20091;-85
2021/01/20 16:35:49;;;;;;;1.70;1.00;;;6.30;99.90;;;;;;4861099;28;20092;-85
2021/01/20 16:38:17;;;;;;;5.10;1.55;;;6.30;99.90;;;;;;4865367;28;20084;-86
2021/01/20 16:40:46;;;;;;;3.83;1.25;;;6.30;99.90;;;;;;4874673;28;20127;-89
2021/01/20 16:43:10;;;;;;;3.42;1.52;;;6.40;99.90;;;;;;4857744;28;20213;-85
2021/01/20 16:45:35;;;;;;;3.95;1.30;;;6.30;99.90;;;;;;4858368;28;20116;-85
2021/01/20 16:48:07;;;;;;;5.03;1.02;;;6.30;99.90;;;;;;4864397;28;20100;-89
2021/01/20 16:50:31;;;;;;;3.60;1.15;;;6.30;99.90;;;;;;4861855;28;20145;-86
2021/01/20 16:52:55;;;;;;;3.22;1.02;;;6.20;99.90;;;;;;4868738;28;20524;-86
2021/01/20 16:55:21;;;;;;;3.38;1.70;;;6.20;99.90;;;;;;4866872;28;20092;-86
2021/01/20 16:57:47;;;;;;;;;;;6.20;99.90;;;;;;4865952;28;20638;-87
2021/01/20 17:00:20;;;;;;;2.97;1.40;;;6.20;99.90;;;;;;4872249;28;19964;-83
2021/01/20 17:02:45;;;;;;;2.20;1.17;;;6.20;99.90;;;;;;4865437;28;20099;-84
2021/01/20 17:05:14;;;;;;;2.08;1.20;;;6.20;99.90;;;;;;4870410;28;20092;-84
2021/01/20 17:07:41;;;;;;;3.75;1.52;;;6.10;99.90;;;;;;4868856;28;20084;-87
2021/01/20 17:10:18;;;;;;;2.75;1.20;;;6.10;99.90;;;;;;4874124;28;20096;-85
2021/01/20 17:12:44;;;;;;;2.63;1.10;;;6.00;99.90;;;;;;4869238;28;20436;-85
2021/01/20 17:15:25;;;;;;;4.43;1.42;;;6.00;99.90;;;;;;4870925;28;20091;-85
2021/01/20 17:50:11;;;;;;;2.47;1.30;;;5.90;99.90;;;;;;4864561;28;20080;-86
2021/01/20 17:52:38;;;;;;;;;;;5.90;99.90;;;;;;4869805;28;20087;-86
2021/01/20 17:55:01;;;;;;;1.33;0.90;;;5.90;99.90;;;;;;4873534;28;19963;-86
2021/01/20 17:57:35;;;;;;;3.00;1.20;;;5.90;99.90;;;;;;4871188;28;20427;-87
2021/01/20 18:00:10;;;;;;;2.13;1.17;;;5.90;99.90;;;;;;4865645;28;20529;-83
2021/01/20 18:02:37;;;;;;;2.42;1.20;;;5.90;99.90;;;;;;4866257;28;20170;-86
2021/01/20 18:05:01;;;;;;;3.53;1.30;;;5.90;99.90;;;;;;4859359;28;20090;-85
2021/01/20 18:07:42;;;;;;;2.67;1.27;;;6.00;99.90;;;;;;4846522;28;20095;-86
2021/01/20 18:10:20;;;;;;;1.85;1.08;;;6.00;99.90;;;;;;4855316;28;20518;-85
2021/01/20 18:12:46;;;;;;;3.60;1.30;;;5.90;99.90;;;;;;4865107;28;20171;-86
2021/01/20 18:15:17;;;;;;;2.80;1.23;;;5.90;99.90;;;;;;4873330;28;20100;-86
2021/01/20 18:17:49;;;;;;;2.55;1.23;;;5.90;99.90;;;;;;4871561;28;20253;-86
2021/01/20 18:20:41;;;;;;;2.83;1.33;;;5.80;99.90;;;;;;4858057;28;20087;-86
2021/01/20 18:23:07;;;;;;;2.90;1.08;;;5.80;99.90;;;;;;4868875;28;21667;-86
2021/01/20 18:25:31;;;;;;;2.47;1.10;;;5.70;99.90;;;;;;4864262;28;20079;-86
2021/01/20 18:27:55;;;;;;;2.60;1.30;;;5.80;99.90;;;;;;4887813;28;20171;-86
2021/01/20 18:30:37;;;;;;;4.53;1.30;;;5.70;99.90;;;;;;4865058;28;20150;-85
2021/01/20 18:33:07;;;;;;;1.85;1.02;;;5.80;99.90;;;;;;4866671;28;20578;-86
2021/01/20 18:35:31;;;;;;;6.20;1.38;;;5.90;99.90;;;;;;4859398;28;20091;-86
2021/01/20 18:37:54;;;;;;;5.75;1.90;;;;;;;;;;4871487;28;20084;-85
2021/01/20 18:40:29;;;;;;;5.70;1.40;;;6.00;99.90;;;;;;4862092;28;20094;-85
2021/01/20 18:43:15;;;;;;;5.18;1.20;;;6.00;99.90;;;;;;4867918;28;20115;-85
2021/01/20 18:45:41;;;;;;;4.30;1.77;;;6.10;99.90;;;;;;4866638;28;20084;-86
2021/01/20 18:48:06;;;;;;;2.67;1.38;;;9.20;99.90;;;;;;4868501;28;20723;-86
2021/01/20 18:50:30;;;;;;;3.13;1.23;;;6.20;99.90;;;;;;4858550;28;20142;-85
2021/01/20 18:52:54;;;;;;;5.10;1.25;;;6.20;99.90;;;;;;4871062;28;20083;-86
2021/01/20 18:55:29;;;;;;;3.55;1.40;;;6.20;99.90;;;;;;4862393;28;20088;-85
2021/01/20 18:57:56;;;;;;;2.03;1.03;;;6.10;99.90;;;;;;4862989;28;20099;-86
2021/01/20 21:40:29;;;;;;;2.28;1.20;;;6.00;99.90;;;;;;4874911;28;20142;-87
2021/01/20 21:42:58;;;;;;;3.05;1.13;;;6.10;99.90;;;;;;4871116;28;20130;-86
2021/01/20 21:45:24;;;;;;;5.03;1.40;;;6.00;99.90;;;;;;4869653;28;20162;-87
2021/01/20 21:47:51;;;;;;;2.55;1.13;;;6.00;99.90;;;;;;4853269;28;20087;-87
2021/01/20 21:50:27;;;;;;;3.13;1.10;;;6.00;99.90;;;;;;4866150;28;20094;-87
2021/01/20 21:53:12;;;;;;;;;;;6.10;99.90;;;;;;4869874;28;20087;-85
2021/01/20 21:55:47;;;;;;;4.38;1.20;;;6.00;99.90;;;;;;4866187;28;20382;-86
2021/01/20 21:58:11;;;;;;;3.20;1.10;;;6.10;99.90;;;;;;4868441;28;20096;-86
2021/01/20 22:00:43;;;;;;;3.78;1.20;;;6.00;99.90;;;;;;4864597;28;20096;-87
2021/01/20 22:03:26;;;;;;;6.72;1.67;;;6.00;99.90;;;;;;4870909;28;20163;-87
2021/01/20 22:05:51;;;;;;;3.25;1.27;;;;;;;;;;4867542;28;20100;-86
2021/01/20 22:08:16;;;;;;;6.20;1.27;;;5.90;99.90;;;;;;4865466;28;20095;-86
2021/01/20 22:10:40;;;;;;;3.75;1.30;;;;;;;;;;4867031;28;20478;-87
2021/01/20 22:13:05;;;;;;;2.10;1.10;;;;;;;;;;4866570;28;20137;-87
2021/01/20 22:15:31;;;;;;;3.20;1.37;;;5.90;99.90;;;;;;4867452;28;20169;-87
2021/01/20 22:17:57;;;;;;;2.58;1.10;;;5.90;99.90;;;;;;4872327;28;20111;-87
2021/01/20 22:20:21;;;;;;;3.58;1.33;;;6.00;99.90;;;;;;4863231;28;20084;-87
2021/01/20 22:22:44;;;;;;;2.00;0.95;;;5.90;99.90;;;;;;4870875;28;20111;-87
2021/01/20 22:25:10;;;;;;;3.75;1.35;;;5.90;99.90;;;;;;4871294;28;24914;-87
2021/01/20 22:27:33;;;;;;;2.75;1.17;;;5.90;99.90;;;;;;4870062;28;20099;-87
2021/01/20 22:29:57;;;;;;;3.13;1.48;;;5.90;99.90;;;;;;4862839;28;20096;-87
2021/01/20 22:32:26;;;;;;;2.28;1.08;;;5.90;99.90;;;;;;4869929;28;20170;-87
2021/01/20 22:34:57;;;;;;;3.38;1.30;;;5.90;99.90;;;;;;4859592;28;20096;-86
2021/01/20 22:37:22;;;;;;;1.90;1.10;;;5.90;99.90;;;;;;4868443;28;20088;-87
2021/01/20 22:39:45;;;;;;;3.92;1.35;;;;;;;;;;4872703;28;20080;-85
2021/01/20 22:42:09;;;;;;;4.57;1.27;;;5.80;99.90;;;;;;4872290;28;20110;-86
2021/01/20 22:44:32;;;;;;;3.65;1.30;;;5.80;99.90;;;;;;4872398;28;20579;-87
2021/01/20 22:47:03;;;;;;;8.75;1.10;;;;;;;;;;4870707;28;20086;-89
2021/01/20 22:49:31;;;;;;;5.28;1.27;;;5.70;99.90;;;;;;4867641;28;20146;-88
2021/01/20 22:52:00;;;;;;;1.70;1.08;;;5.70;99.90;;;;;;4863965;28;20105;-87
2021/01/20 22:54:26;;;;;;;2.72;1.23;;;5.60;99.90;;;;;;4866905;28;20512;-87
2021/01/20 22:57:01;;;;;;;2.22;1.50;;;5.70;99.90;;;;;;4850966;28;20131;-87
2021/01/20 22:59:27;;;;;;;3.03;1.05;;;5.60;99.90;;;;;;4870564;28;20097;-87
2021/01/20 23:01:50;;;;;;;4.50;1.75;;;5.60;99.90;;;;;;4871560;28;20088;-88
2021/01/20 23:04:20;;;;;;;1.88;1.23;;;5.70;99.90;;;;;;4871135;28;20144;-87
2021/01/20 23:06:54;;;;;;;4.65;1.48;;;5.80;99.90;;;;;;4862463;28;20088;-87
2021/01/20 23:09:35;;;;;;;8.75;1.80;;;5.70;99.90;;;;;;4849617;28;20088;-87
2021/01/20 23:11:59;;;;;;;2.00;1.20;;;5.70;99.90;;;;;;4858817;28;20083;-87
2021/01/20 23:14:29;;;;;;;2.95;1.33;;;5.80;99.90;;;;;;4869886;28;21186;-87
2021/01/20 23:16:52;;;;;;;1.88;0.95;;;5.90;99.90;;;;;;4866371;28;20088;-87
2021/01/20 23:19:17;;;;;;;2.47;1.27;;;5.90;99.90;;;;;;4863127;28;20088;-88
2021/01/20 23:21:44;;;;;;;4.80;1.40;;;6.00;99.90;;;;;;4869082;28;20096;-87
2021/01/20 23:24:11;;;;;;;1.65;1.00;;;6.00;99.90;;;;;;4855566;28;20095;-88
2021/01/20 23:26:45;;;;;;;3.97;1.20;;;6.00;99.90;;;;;;4872480;28;20099;-87
2021/01/20 23:29:09;;;;;;;2.75;1.33;;;5.90;99.90;;;;;;4868507;28;20087;-86
2021/01/20 23:31:38;;;;;;;4.20;1.20;;;5.90;99.90;;;;;;4853768;28;20095;-88
2021/01/20 23:34:02;;;;;;;2.70;1.20;;;6.00;99.90;;;;;;4868814;28;20100;-88
2021/01/20 23:36:27;;;;;;;5.18;2.20;;;6.10;99.90;;;;;;4867024;28;20181;-87
2021/01/20 23:38:58;;;;;;;3.75;1.20;;;;;;;;;;4868282;28;20100;-87
2021/01/20 23:41:21;;;;;;;3.45;0.95;;;6.00;99.90;;;;;;4863595;28;20186;-87
2021/01/20 23:43:54;;;;;;;2.58;1.10;;;6.00;99.90;;;;;;4866406;28;20083;-87
2021/01/20 23:46:23;;;;;;;3.83;1.27;;;6.00;99.90;;;;;;4871284;28;20088;-86
2021/01/20 23:48:47;;;;;;;4.50;1.10;;;6.10;99.90;;;;;;4871164;28;20099;-87
2021/01/20 23:51:10;;;;;;;2.33;1.05;;;6.00;99.90;;;;;;4871131;28;20192;-87
2021/01/20 23:53:57;;;;;;;2.97;1.20;;;6.10;99.90;;;;;;4865445;28;20088;-86
2021/01/20 23:56:35;;;;;;;2.28;1.25;;;6.10;99.90;;;;;;4860433;28;20103;-88
2021/01/20 23:58:58;;;;;;;3.10;1.40;;;;;;;;;;4871835;28;20096;-87
